Time;durP1;ratioP1;P1;durP2;ratioP2;P2;SDS_P1;SDS_P2;PMS_P1;PMS_P2;Temp;Humidity;BMP_temperature;BMP_pressure;BME280_temperature;BME280_humidity;BME280_pressure;Samples;Min_cycle;Max_cycle;Signal;HPM_P1;HPM_P2
2022/11/27 00:01:18;;;;;;;11.67;4.23;;;4.50;99.90;;;;;;5062787;28;20429;-79
2022/11/27 00:03:45;;;;;;;6.20;3.50;;;4.50;99.90;;;;;;5044631;28;20486;-80
2022/11/27 00:06:14;;;;;;;15.30;4.40;;;4.60;99.90;;;;;;5043239;28;20413;-81
2022/11/27 00:08:40;;;;;;;12.03;3.10;;;4.60;99.90;;;;;;5042753;28;20421;-80
2022/11/27 00:11:12;;;;;;;6.63;3.33;;;4.60;99.90;;;;;;5043787;28;20417;-80
2022/11/27 00:13:37;;;;;;;9.83;3.30;;;4.60;99.90;;;;;;5044639;28;20190;-80
2022/11/27 00:16:04;;;;;;;5.80;2.93;;;4.70;99.90;;;;;;5062568;28;20420;-79
2022/11/27 00:18:31;;;;;;;6.87;4.53;;;4.60;99.90;;;;;;5043207;28;20175;-79
2022/11/27 00:21:05;;;;;;;5.03;2.70;;;4.60;99.90;;;;;;5044298;28;20500;-80
2022/11/27 00:23:31;;;;;;;6.50;4.10;;;4.60;99.90;;;;;;5044146;28;20478;-80
2022/11/27 00:25:57;;;;;;;6.10;3.87;;;4.60;99.90;;;;;;5062686;28;20409;-80
2022/11/27 00:28:23;;;;;;;14.77;2.97;;;4.60;99.90;;;;;;5062026;28;20416;-78
2022/11/27 00:30:49;;;;;;;8.97;4.67;;;4.70;99.90;;;;;;5062055;28;20175;-80
2022/11/27 00:33:14;;;;;;;4.23;2.83;;;4.70;99.90;;;;;;5044279;28;20190;-79
2022/11/27 00:35:40;;;;;;;12.73;3.67;;;4.80;99.90;;;;;;5043740;28;20223;-79
2022/11/27 00:38:05;;;;;;;8.90;2.90;;;4.80;99.90;;;;;;5043551;28;20182;-77
2022/11/27 00:40:31;;;;;;;5.93;3.10;;;4.80;99.90;;;;;;5043962;28;20302;-80
2022/11/27 00:42:56;;;;;;;9.37;3.37;;;4.80;99.90;;;;;;5044014;28;20270;-79
2022/11/27 00:45:22;;;;;;;5.53;3.00;;;4.80;99.90;;;;;;5043598;28;20171;-80
2022/11/27 00:47:48;;;;;;;5.47;3.20;;;4.80;99.90;;;;;;5061513;28;20212;-78
2022/11/27 00:50:13;;;;;;;4.30;2.50;;;4.80;99.90;;;;;;5043890;28;20194;-80
2022/11/27 00:52:39;;;;;;;10.50;3.37;;;4.80;99.90;;;;;;5042627;28;20563;-80
2022/11/27 00:55:05;;;;;;;6.00;2.60;;;4.80;99.90;;;;;;5061144;28;20413;-80
2022/11/27 00:57:31;;;;;;;10.73;2.73;;;4.90;99.90;;;;;;5044245;28;20171;-79
2022/11/27 00:59:56;;;;;;;5.57;3.00;;;4.90;99.90;;;;;;5062703;28;20448;-79
2022/11/27 01:02:22;;;;;;;6.70;3.93;;;4.90;99.90;;;;;;5043234;28;20194;-80
2022/11/27 01:04:50;;;;;;;4.50;3.50;;;4.80;99.90;;;;;;5042765;28;20253;-79
2022/11/27 01:07:16;;;;;;;6.90;3.80;;;4.70;99.90;;;;;;5061506;28;20565;-79
2022/11/27 01:09:41;;;;;;;7.50;3.30;;;4.60;99.90;;;;;;5043861;28;20428;-80
2022/11/27 01:12:07;;;;;;;8.70;3.57;;;4.60;99.90;;;;;;5043227;28;20197;-80
2022/11/27 01:14:33;;;;;;;4.37;3.80;;;4.60;99.90;;;;;;5061701;28;20246;-80
2022/11/27 01:16:59;;;;;;;5.97;2.90;;;4.50;99.90;;;;;;5061426;28;20171;-79
2022/11/27 01:19:24;;;;;;;4.90;3.10;;;4.50;99.90;;;;;;5047507;28;20488;-79
2022/11/27 01:21:50;;;;;;;8.07;4.00;;;4.50;99.90;;;;;;5065817;28;20179;-80
2022/11/27 01:24:16;;;;;;;11.47;4.03;;;4.50;99.90;;;;;;5047034;28;20175;-79
2022/11/27 01:26:42;;;;;;;9.60;3.23;;;4.50;99.90;;;;;;5065154;28;20171;-80
2022/11/27 01:29:08;;;;;;;11.23;3.30;;;4.50;99.90;;;;;;5065448;28;20460;-79
2022/11/27 01:31:34;;;;;;;4.87;3.23;;;4.50;99.90;;;;;;5045857;28;20444;-80
2022/11/27 01:34:04;;;;;;;8.70;3.70;;;4.60;99.90;;;;;;5048007;28;20175;-80
2022/11/27 01:36:31;;;;;;;8.70;4.10;;;4.60;99.90;;;;;;5046761;28;20922;-80
2022/11/27 01:38:57;;;;;;;3.80;2.20;;;4.60;99.90;;;;;;5047036;28;20460;-80
2022/11/27 01:41:29;;;;;;;4.30;3.13;;;4.70;99.90;;;;;;5064136;28;20409;-80
2022/11/27 01:43:58;;;;;;;5.67;3.10;;;4.70;99.90;;;;;;5046867;28;20492;-79
2022/11/27 01:46:37;;;;;;;8.97;3.30;;;4.70;99.90;;;;;;5045249;28;20507;-78
2022/11/27 01:49:08;;;;;;;9.67;4.20;;;4.70;99.90;;;;;;5063957;28;20405;-79
2022/11/27 01:52:00;;;;;;;7.30;3.17;;;4.80;99.90;;;;;;5045575;28;20409;-78
2022/11/27 01:54:31;;;;;;;5.13;2.60;;;4.80;99.90;;;;;;5033543;28;20942;-78
2022/11/27 01:57:14;;;;;;;6.33;3.30;;;4.80;99.90;;;;;;5046635;28;20410;-80
2022/11/27 01:59:40;;;;;;;8.63;3.30;;;4.80;99.90;;;;;;5045846;28;20741;-80
2022/11/27 02:02:05;;;;;;;11.60;4.50;;;4.80;99.90;;;;;;5044491;28;21029;-80
2022/11/27 02:04:31;;;;;;;5.80;2.67;;;4.90;99.90;;;;;;5043405;28;20410;-79
2022/11/27 02:06:58;;;;;;;7.70;3.10;;;4.90;99.90;;;;;;5045042;28;20171;-79
2022/11/27 02:09:25;;;;;;;10.63;6.40;;;4.90;99.90;;;;;;5045338;28;20795;-80
2022/11/27 02:12:02;;;;;;;5.00;3.37;;;4.90;99.90;;;;;;5062358;28;20410;-80
2022/11/27 02:14:52;;;;;;;12.47;3.93;;;4.90;99.90;;;;;;5063762;28;20428;-78
2022/11/27 02:17:30;;;;;;;4.93;3.30;;;4.90;99.90;;;;;;5062673;28;20408;-78
2022/11/27 02:20:17;;;;;;;2.80;2.40;;;4.80;99.90;;;;;;5061763;28;20452;-80
2022/11/27 02:23:00;;;;;;;4.73;3.00;;;4.90;99.90;;;;;;5043977;28;20463;-76
2022/11/27 02:25:38;;;;;;;6.93;2.30;;;4.80;99.90;;;;;;5044285;28;20409;-79
2022/11/27 02:28:42;;;;;;;4.90;3.73;;;4.80;99.90;;;;;;5063352;28;20405;-80
2022/11/27 02:31:48;;;;;;;4.20;3.20;;;4.80;99.90;;;;;;5044458;28;20930;-79
2022/11/27 02:34:16;;;;;;;18.37;4.07;;;4.80;99.90;;;;;;5061311;28;20412;-80
2022/11/27 02:36:49;;;;;;;9.33;4.43;;;4.80;99.90;;;;;;5044425;28;20413;-80
2022/11/27 02:39:21;;;;;;;5.20;2.70;;;4.80;99.90;;;;;;5044068;28;20452;-80
2022/11/27 02:41:53;;;;;;;6.23;4.40;;;4.80;99.90;;;;;;5045387;28;20416;-80
2022/11/27 02:44:20;;;;;;;5.73;4.07;;;4.80;99.90;;;;;;5061293;28;20393;-80
2022/11/27 02:46:48;;;;;;;11.27;3.47;;;4.80;99.90;;;;;;5044346;28;20413;-79
2022/11/27 02:49:17;;;;;;;6.27;2.93;;;4.80;99.90;;;;;;5062734;28;20907;-80
2022/11/27 02:51:52;;;;;;;8.30;3.97;;;4.80;99.90;;;;;;5044427;28;20413;-79
2022/11/27 02:54:23;;;;;;;5.70;3.10;;;4.80;99.90;;;;;;5061988;28;20458;-79
2022/11/27 02:56:50;;;;;;;11.30;3.87;;;4.70;99.90;;;;;;5044183;28;20780;-80
2022/11/27 02:59:18;;;;;;;6.57;3.47;;;4.70;99.90;;;;;;5062542;28;20483;-79
2022/11/27 03:01:52;;;;;;;5.87;3.10;;;4.70;99.90;;;;;;5046706;28;20765;-79
2022/11/27 03:04:22;;;;;;;9.87;4.03;;;4.70;99.90;;;;;;5047216;28;20437;-79
2022/11/27 03:06:53;;;;;;;10.10;4.57;;;4.70;99.90;;;;;;5044124;28;20410;-80
2022/11/27 03:09:25;;;;;;;8.63;4.60;;;4.70;99.90;;;;;;5045750;28;20422;-79
2022/11/27 03:11:50;;;;;;;7.13;4.70;;;4.70;99.90;;;;;;5044738;28;20420;-80
2022/11/27 03:14:19;;;;;;;9.87;4.93;;;4.70;99.90;;;;;;5044469;28;20458;-77
2022/11/27 03:16:53;;;;;;;9.87;4.47;;;4.70;99.90;;;;;;5061625;28;20663;-80
2022/11/27 03:19:21;;;;;;;8.93;5.03;;;4.60;99.90;;;;;;5044712;28;20460;-79
2022/11/27 03:22:01;;;;;;;14.23;5.97;;;4.60;99.90;;;;;;5044057;28;20410;-80
2022/11/27 03:24:29;;;;;;;7.17;3.90;;;4.60;99.90;;;;;;5062271;28;20405;-80
2022/11/27 03:26:57;;;;;;;8.17;5.03;;;4.60;99.90;;;;;;5043074;28;20423;-80
2022/11/27 03:29:28;;;;;;;13.33;5.77;;;4.70;99.90;;;;;;5039841;28;20914;-78
2022/11/27 03:31:55;;;;;;;8.90;5.37;;;4.70;99.90;;;;;;5036895;28;20480;-80
2022/11/27 03:34:21;;;;;;;13.43;5.10;;;4.60;99.90;;;;;;5041989;28;20409;-79
2022/11/27 03:36:47;;;;;;;9.27;5.37;;;4.70;99.90;;;;;;5061224;28;20409;-80
2022/11/27 03:39:12;;;;;;;10.50;5.03;;;4.70;99.90;;;;;;5036161;28;20965;-76
2022/11/27 03:42:03;;;;;;;12.27;5.53;;;4.80;99.90;;;;;;5034654;28;20175;-78
2022/11/27 03:44:33;;;;;;;13.17;6.40;;;4.80;99.90;;;;;;5057025;28;20171;-79
2022/11/27 03:47:23;;;;;;;12.77;6.30;;;4.80;99.90;;;;;;5060109;28;20404;-80
2022/11/27 03:50:14;;;;;;;11.87;5.63;;;4.80;99.90;;;;;;5055441;28;20401;-78
2022/11/27 03:52:54;;;;;;;13.07;4.80;;;4.90;99.90;;;;;;5054192;28;20447;-79
2022/11/27 03:55:53;;;;;;;11.90;5.70;;;4.90;99.90;;;;;;5055680;28;20429;-76
2022/11/27 03:58:44;;;;;;;9.97;4.90;;;4.90;99.90;;;;;;5034492;28;20814;-77
2022/11/27 04:01:13;;;;;;;7.87;4.43;;;4.90;99.90;;;;;;5052202;28;20456;-77
2022/11/27 04:03:38;;;;;;;13.70;5.73;;;5.00;99.90;;;;;;5052061;28;20509;-77
2022/11/27 04:06:04;;;;;;;12.00;5.03;;;5.00;99.90;;;;;;5051801;28;20839;-77
2022/11/27 04:08:30;;;;;;;10.50;4.77;;;5.00;99.90;;;;;;5052107;28;20213;-77
2022/11/27 04:10:56;;;;;;;11.77;5.53;;;5.00;99.90;;;;;;5052067;28;20194;-77
2022/11/27 04:13:21;;;;;;;11.10;5.03;;;5.00;99.90;;;;;;5054181;28;20910;-78
2022/11/27 04:15:47;;;;;;;7.60;4.87;;;5.00;99.90;;;;;;5040896;28;20171;-80
2022/11/27 04:18:12;;;;;;;8.50;4.63;;;5.00;99.90;;;;;;5058406;28;20163;-80
2022/11/27 04:20:38;;;;;;;13.00;5.60;;;5.00;99.90;;;;;;5058818;28;20194;-78
2022/11/27 04:23:03;;;;;;;11.73;5.53;;;5.00;99.90;;;;;;5057917;28;20183;-80
2022/11/27 04:25:29;;;;;;;14.63;5.23;;;5.00;99.90;;;;;;5054553;28;20171;-77
2022/11/27 04:27:54;;;;;;;14.43;6.50;;;5.00;99.90;;;;;;5051746;28;20178;-79
2022/11/27 04:30:20;;;;;;;16.80;7.07;;;5.00;99.90;;;;;;5052988;28;20162;-79
2022/11/27 04:32:45;;;;;;;7.23;4.47;;;5.00;99.90;;;;;;5053794;28;20211;-81
2022/11/27 04:35:11;;;;;;;8.53;6.03;;;5.00;99.90;;;;;;5041108;28;20171;-80
2022/11/27 04:37:37;;;;;;;11.97;7.30;;;5.00;99.90;;;;;;5041462;28;20175;-80
2022/11/27 04:40:03;;;;;;;9.47;5.57;;;5.00;99.90;;;;;;5058097;28;20194;-79
2022/11/27 04:42:29;;;;;;;8.27;5.20;;;5.00;99.90;;;;;;5040427;28;20272;-79
2022/11/27 04:44:54;;;;;;;11.27;5.50;;;5.00;99.90;;;;;;5039768;28;21039;-80
2022/11/27 04:47:20;;;;;;;9.23;4.87;;;5.00;99.90;;;;;;5057737;28;20159;-80
2022/11/27 04:49:46;;;;;;;9.17;4.77;;;5.00;99.90;;;;;;5039297;28;20225;-78
2022/11/27 04:52:11;;;;;;;6.53;4.63;;;5.10;99.90;;;;;;5057532;28;20193;-78
2022/11/27 04:54:37;;;;;;;13.33;5.70;;;5.10;99.90;;;;;;5057227;28;20194;-79
2022/11/27 04:57:03;;;;;;;14.80;5.87;;;5.10;99.90;;;;;;5059449;28;20167;-78
2022/11/27 04:59:28;;;;;;;9.07;5.53;;;5.10;99.90;;;;;;5056800;28;20186;-79
2022/11/27 05:01:54;;;;;;;9.97;5.40;;;5.10;99.90;;;;;;5060388;28;20187;-77
2022/11/27 05:04:20;;;;;;;13.93;6.17;;;5.10;99.90;;;;;;5057448;28;20167;-79
2022/11/27 05:06:45;;;;;;;9.63;5.70;;;5.10;99.90;;;;;;5038918;28;20178;-77
2022/11/27 05:09:11;;;;;;;5.87;4.40;;;5.10;99.90;;;;;;5043295;28;20194;-78
2022/11/27 05:11:37;;;;;;;10.10;5.03;;;5.10;99.90;;;;;;5041318;28;20171;-78
2022/11/27 05:14:15;;;;;;;6.30;4.20;;;5.10;99.90;;;;;;5059049;28;20464;-79
2022/11/27 05:16:51;;;;;;;9.10;5.20;;;5.00;99.90;;;;;;5060292;28;20197;-78
2022/11/27 05:19:18;;;;;;;12.30;4.70;;;5.10;99.90;;;;;;5040828;28;20445;-80
2022/11/27 05:21:45;;;;;;;7.83;5.30;;;5.10;99.90;;;;;;5038259;28;20412;-79
2022/11/27 05:24:11;;;;;;;8.80;4.50;;;5.10;99.90;;;;;;5055543;28;20836;-79
2022/11/27 05:26:38;;;;;;;7.33;5.30;;;5.10;99.90;;;;;;5042601;28;20409;-80
2022/11/27 05:29:04;;;;;;;13.80;5.30;;;5.10;99.90;;;;;;5056196;28;20468;-76
2022/11/27 05:31:30;;;;;;;9.93;5.60;;;5.10;99.90;;;;;;5055920;28;20430;-78
2022/11/27 05:33:56;;;;;;;7.53;5.07;;;5.10;99.90;;;;;;5054924;28;20432;-76
2022/11/27 05:36:21;;;;;;;16.03;6.00;;;5.10;99.90;;;;;;5054872;28;20171;-76
2022/11/27 05:38:47;;;;;;;13.43;5.40;;;5.10;99.90;;;;;;5037044;28;20459;-76
2022/11/27 05:41:13;;;;;;;10.50;6.30;;;5.10;99.90;;;;;;5054987;28;20163;-76
2022/11/27 05:43:38;;;;;;;14.47;6.20;;;5.10;99.90;;;;;;5054792;28;20703;-77
2022/11/27 05:46:05;;;;;;;6.53;4.73;;;5.10;99.90;;;;;;5054422;28;20198;-76
2022/11/27 05:48:32;;;;;;;13.83;5.27;;;5.10;99.90;;;;;;5054909;28;20174;-76
2022/11/27 05:50:57;;;;;;;14.47;5.10;;;5.10;99.90;;;;;;5054656;28;20397;-77
2022/11/27 05:53:23;;;;;;;10.23;5.00;;;5.10;99.90;;;;;;5054473;28;20795;-77
2022/11/27 05:55:48;;;;;;;9.20;5.33;;;5.10;99.90;;;;;;5056435;28;20529;-80
2022/11/27 05:58:14;;;;;;;7.40;4.97;;;5.10;99.90;;;;;;5043171;28;20261;-78
2022/11/27 06:00:39;;;;;;;9.83;4.87;;;5.10;99.90;;;;;;5039548;28;20560;-80
2022/11/27 06:03:05;;;;;;;9.17;4.77;;;5.10;99.90;;;;;;5059619;28;20206;-78
2022/11/27 06:05:30;;;;;;;8.00;4.33;;;5.10;99.90;;;;;;5059356;28;20163;-78
2022/11/27 06:07:56;;;;;;;9.50;4.47;;;5.10;99.90;;;;;;5054504;28;20202;-77
2022/11/27 06:10:21;;;;;;;7.67;5.57;;;5.10;99.90;;;;;;5054242;28;20251;-79
2022/11/27 06:12:47;;;;;;;8.90;5.47;;;5.10;99.90;;;;;;5038623;28;20277;-78
2022/11/27 06:15:12;;;;;;;8.17;4.63;;;5.10;99.90;;;;;;5056526;28;20596;-79
2022/11/27 06:17:38;;;;;;;14.63;5.10;;;5.10;99.90;;;;;;5041938;28;20221;-79
2022/11/27 06:20:04;;;;;;;5.90;4.20;;;5.10;99.90;;;;;;5054274;28;20195;-79
2022/11/27 06:22:30;;;;;;;7.40;4.40;;;5.20;99.90;;;;;;5057988;28;20672;-80
2022/11/27 06:24:55;;;;;;;8.43;5.47;;;5.10;99.90;;;;;;5055040;28;20485;-79
2022/11/27 06:27:21;;;;;;;8.20;4.20;;;5.10;99.90;;;;;;5041947;28;20769;-78
2022/11/27 06:29:46;;;;;;;8.00;4.50;;;5.10;99.90;;;;;;5054012;28;20646;-76
2022/11/27 06:32:12;;;;;;;11.90;4.33;;;5.10;99.90;;;;;;5053775;28;20718;-76
2022/11/27 06:34:37;;;;;;;7.60;3.83;;;5.10;99.90;;;;;;5055377;28;20162;-77
2022/11/27 06:37:03;;;;;;;12.13;4.90;;;5.20;99.90;;;;;;5044114;28;20189;-78
2022/11/27 06:39:29;;;;;;;7.17;4.60;;;5.20;99.90;;;;;;5055157;28;20198;-76
2022/11/27 06:41:54;;;;;;;6.47;4.63;;;5.20;99.90;;;;;;5059397;28;20195;-80
2022/11/27 06:44:20;;;;;;;8.67;4.70;;;5.20;99.90;;;;;;5062875;28;20628;-80
2022/11/27 06:46:45;;;;;;;9.13;4.67;;;5.20;99.90;;;;;;5043727;28;20858;-80
2022/11/27 06:49:11;;;;;;;7.73;4.63;;;5.10;99.90;;;;;;5044523;28;20690;-79
2022/11/27 06:51:37;;;;;;;6.77;4.53;;;5.10;99.90;;;;;;5037603;28;20567;-76
2022/11/27 06:54:02;;;;;;;6.70;4.20;;;5.10;99.90;;;;;;5035456;28;20285;-77
2022/11/27 06:56:30;;;;;;;5.13;3.67;;;5.20;99.90;;;;;;5035544;28;20171;-77
2022/11/27 06:58:57;;;;;;;11.17;4.93;;;5.10;99.90;;;;;;5035398;28;20211;-76
2022/11/27 07:01:25;;;;;;;10.80;4.73;;;5.20;99.90;;;;;;5053441;28;20496;-77
2022/11/27 07:03:50;;;;;;;4.80;3.50;;;5.10;99.90;;;;;;5053672;28;21121;-75
2022/11/27 07:06:21;;;;;;;7.43;4.57;;;5.10;99.90;;;;;;5035192;28;20456;-75
2022/11/27 07:08:47;;;;;;;6.53;3.57;;;5.10;99.90;;;;;;5054170;28;20170;-79
2022/11/27 07:11:18;;;;;;;8.53;4.00;;;5.20;99.90;;;;;;5060456;28;20406;-77
2022/11/27 07:13:45;;;;;;;8.33;4.07;;;5.20;99.90;;;;;;5057313;28;20186;-80
2022/11/27 07:16:11;;;;;;;8.60;3.83;;;5.20;99.90;;;;;;5034902;28;20452;-77
2022/11/27 07:18:40;;;;;;;4.70;2.90;;;5.30;99.90;;;;;;5056799;28;20414;-76
2022/11/27 07:21:06;;;;;;;8.83;4.70;;;5.30;99.90;;;;;;5035637;28;20421;-77
2022/11/27 07:23:32;;;;;;;6.57;4.27;;;5.30;99.90;;;;;;5052995;28;20424;-78
2022/11/27 07:25:57;;;;;;;8.50;3.87;;;5.30;99.90;;;;;;5053632;28;20867;-77
2022/11/27 07:28:23;;;;;;;9.33;4.23;;;5.30;99.90;;;;;;5055181;28;20162;-79
2022/11/27 07:30:57;;;;;;;5.67;3.03;;;5.40;99.90;;;;;;5036429;28;20662;-78
2022/11/27 07:33:23;;;;;;;4.70;3.00;;;5.40;99.90;;;;;;5039903;28;20629;-80
2022/11/27 07:35:49;;;;;;;3.87;3.47;;;5.50;99.90;;;;;;5038285;28;20475;-77
2022/11/27 07:38:15;;;;;;;5.37;3.93;;;5.50;99.90;;;;;;5053207;28;20415;-78
2022/11/27 07:40:40;;;;;;;6.30;3.37;;;5.50;99.90;;;;;;5037645;28;20540;-76
2022/11/27 07:43:06;;;;;;;9.43;3.90;;;5.50;99.90;;;;;;5055149;28;20187;-77
2022/11/27 07:45:31;;;;;;;6.73;4.13;;;5.60;99.90;;;;;;5053503;28;20171;-77
2022/11/27 07:47:57;;;;;;;5.03;3.70;;;5.60;99.90;;;;;;5053811;28;20163;-78
2022/11/27 07:50:22;;;;;;;5.87;3.40;;;5.70;99.90;;;;;;5035886;28;20542;-77
2022/11/27 07:52:48;;;;;;;11.30;4.20;;;5.60;99.90;;;;;;5057671;28;20195;-79
2022/11/27 07:55:14;;;;;;;9.67;3.37;;;5.70;99.90;;;;;;5057913;28;20171;-80
2022/11/27 07:57:41;;;;;;;14.20;3.97;;;5.70;99.90;;;;;;5037662;28;20179;-79
2022/11/27 08:00:07;;;;;;;7.00;3.40;;;5.80;99.90;;;;;;5040923;28;20222;-77
2022/11/27 08:02:32;;;;;;;5.23;3.27;;;5.90;99.90;;;;;;5053648;28;20425;-77
2022/11/27 08:04:58;;;;;;;3.77;3.17;;;5.90;99.90;;;;;;5058180;28;20463;-80
2022/11/27 08:07:28;;;;;;;5.90;2.93;;;6.00;99.90;;;;;;5040721;28;20166;-79
2022/11/27 08:09:53;;;;;;;4.13;2.57;;;6.00;99.90;;;;;;5055798;28;20278;-78
2022/11/27 08:12:19;;;;;;;5.77;3.60;;;6.10;99.90;;;;;;5036773;28;20933;-80
2022/11/27 08:14:44;;;;;;;4.07;2.50;;;6.10;99.90;;;;;;5037845;28;20178;-78
2022/11/27 08:17:12;;;;;;;5.43;3.70;;;6.20;99.90;;;;;;5052185;28;20179;-78
2022/11/27 08:19:37;;;;;;;4.43;3.20;;;6.30;99.90;;;;;;5035220;28;20234;-78
2022/11/27 08:22:03;;;;;;;4.90;2.87;;;6.40;99.90;;;;;;5054279;28;20440;-77
2022/11/27 08:24:29;;;;;;;6.57;2.57;;;6.40;99.90;;;;;;5052991;28;20167;-76
2022/11/27 08:26:54;;;;;;;5.00;3.67;;;6.40;99.90;;;;;;5034037;28;20930;-78
2022/11/27 08:29:20;;;;;;;10.20;3.57;;;6.50;99.90;;;;;;5051914;28;20181;-76
2022/11/27 08:31:45;;;;;;;5.13;3.67;;;6.50;99.90;;;;;;5052167;28;20222;-76
2022/11/27 08:34:11;;;;;;;9.27;3.60;;;6.60;99.90;;;;;;5056235;28;20170;-80
2022/11/27 08:36:36;;;;;;;6.20;3.90;;;6.70;99.90;;;;;;5037020;28;20220;-76
2022/11/27 08:39:02;;;;;;;6.80;3.70;;;6.70;99.90;;;;;;5038772;28;20194;-79
2022/11/27 08:41:27;;;;;;;4.17;2.97;;;6.80;99.90;;;;;;5035480;28;20171;-78
2022/11/27 08:43:53;;;;;;;4.80;3.30;;;7.00;99.90;;;;;;5051555;28;20657;-76
2022/11/27 08:46:18;;;;;;;8.60;4.07;;;7.00;99.90;;;;;;5053063;28;20171;-77
2022/11/27 08:48:44;;;;;;;5.60;3.10;;;7.10;99.90;;;;;;5053954;28;20191;-79
2022/11/27 08:51:13;;;;;;;5.83;3.20;;;7.20;99.90;;;;;;5039396;28;20175;-79
2022/11/27 08:53:39;;;;;;;3.13;2.80;;;7.30;99.90;;;;;;5034936;28;20233;-78
2022/11/27 08:56:06;;;;;;;7.37;3.50;;;7.20;99.90;;;;;;5033561;28;20875;-78
2022/11/27 08:58:31;;;;;;;4.73;2.90;;;7.20;99.90;;;;;;5033724;28;20846;-78
2022/11/27 09:00:57;;;;;;;5.80;3.40;;;7.10;99.90;;;;;;5053329;28;20448;-78
2022/11/27 09:03:22;;;;;;;4.63;2.97;;;7.10;99.90;;;;;;5038207;28;20205;-78
2022/11/27 09:05:48;;;;;;;4.70;3.67;;;7.00;99.90;;;;;;5034463;28;20167;-75
2022/11/27 09:08:19;;;;;;;8.13;3.83;;;7.00;99.90;;;;;;5051574;28;20639;-76
2022/11/27 09:10:44;;;;;;;3.93;3.30;;;7.00;99.90;;;;;;5051528;28;20170;-76
2022/11/27 09:13:10;;;;;;;4.40;3.20;;;7.10;99.90;;;;;;5054549;28;20939;-79
2022/11/27 09:15:35;;;;;;;12.90;3.87;;;7.00;99.90;;;;;;5037542;28;20179;-80
2022/11/27 09:18:01;;;;;;;4.10;3.67;;;7.10;99.90;;;;;;5038763;28;20246;-80
2022/11/27 09:20:27;;;;;;;6.40;3.57;;;7.10;99.90;;;;;;5040134;28;20226;-80
2022/11/27 09:22:52;;;;;;;8.83;4.40;;;7.20;99.90;;;;;;5057305;28;20210;-79
2022/11/27 09:25:18;;;;;;;5.20;3.37;;;7.30;99.90;;;;;;5056922;28;20163;-79
2022/11/27 09:27:43;;;;;;;6.60;3.37;;;7.50;99.90;;;;;;5038965;28;20167;-79
2022/11/27 09:30:09;;;;;;;4.97;2.90;;;7.50;99.90;;;;;;5039239;28;20171;-79
2022/11/27 09:32:36;;;;;;;4.47;2.90;;;7.70;99.90;;;;;;5056274;28;20262;-79
2022/11/27 09:35:02;;;;;;;5.03;3.40;;;7.80;99.90;;;;;;5056785;28;20420;-79
2022/11/27 09:37:27;;;;;;;5.77;3.47;;;7.90;99.90;;;;;;5038182;28;20449;-79
2022/11/27 09:39:54;;;;;;;3.80;2.83;;;8.00;99.90;;;;;;5041435;28;20452;-78
2022/11/27 09:42:39;;;;;;;6.27;3.10;;;8.10;99.90;;;;;;5059525;28;20179;-79
2022/11/27 09:45:11;;;;;;;6.70;4.57;;;8.30;99.90;;;;;;5059853;28;20397;-80
2022/11/27 09:47:41;;;;;;;6.47;3.20;;;8.50;99.90;;;;;;5059229;28;20443;-78
2022/11/27 09:50:21;;;;;;;5.33;3.33;;;8.60;99.90;;;;;;5059982;28;20740;-79
2022/11/27 09:53:05;;;;;;;5.17;2.90;;;8.60;99.90;;;;;;5059539;28;20421;-80
2022/11/27 09:55:40;;;;;;;6.93;3.60;;;8.70;99.90;;;;;;5041456;28;20457;-80
2022/11/27 09:58:26;;;;;;;4.30;3.87;;;8.90;99.90;;;;;;5041665;28;20429;-80
2022/11/27 10:00:52;;;;;;;5.33;3.83;;;8.90;99.90;;;;;;5041646;28;20864;-79
2022/11/27 10:03:22;;;;;;;8.70;3.40;;;8.80;99.90;;;;;;5041526;28;20465;-80
2022/11/27 10:06:22;;;;;;;4.93;3.40;;;8.70;99.90;;;;;;5059254;28;20218;-80
2022/11/27 10:09:18;;;;;;;4.80;3.00;;;8.50;99.90;;;;;;5060230;28;20413;-79
2022/11/27 10:12:08;;;;;;;5.73;3.70;;;8.50;99.90;;;;;;5059781;28;20774;-80
2022/11/27 10:14:40;;;;;;;4.80;2.80;;;8.40;99.90;;;;;;5059533;28;20455;-79
2022/11/27 10:17:17;;;;;;;5.83;2.70;;;8.40;99.90;;;;;;5041554;28;20768;-79
2022/11/27 10:20:18;;;;;;;7.50;3.20;;;8.20;99.90;;;;;;5059523;28;20436;-79
2022/11/27 10:23:31;;;;;;;7.07;2.50;;;8.10;99.90;;;;;;5042035;28;20520;-80
2022/11/27 10:26:08;;;;;;;2.87;2.17;;;8.00;99.90;;;;;;4966791;28;20417;-78
2022/11/27 10:28:53;;;;;;;5.90;3.00;;;8.00;99.90;;;;;;5059538;28;20463;-79
2022/11/27 10:31:37;;;;;;;4.83;3.03;;;7.90;99.90;;;;;;5058981;28;20425;-79
2022/11/27 10:34:18;;;;;;;8.43;3.23;;;7.90;99.90;;;;;;5059791;28;20413;-79
2022/11/27 10:36:47;;;;;;;4.27;2.40;;;7.90;99.90;;;;;;5059755;28;20456;-79
2022/11/27 10:39:23;;;;;;;4.33;3.33;;;8.00;99.90;;;;;;5042694;28;20464;-79
2022/11/27 10:41:55;;;;;;;8.80;4.00;;;8.00;99.90;;;;;;5041774;28;20417;-80
2022/11/27 10:44:56;;;;;;;6.30;3.03;;;8.00;99.90;;;;;;5041454;28;20414;-80
2022/11/27 10:47:26;;;;;;;3.00;2.73;;;8.10;99.90;;;;;;5042204;28;20417;-79
2022/11/27 10:49:51;;;;;;;7.27;3.50;;;8.10;99.90;;;;;;5041696;28;20409;-79
2022/11/27 10:52:18;;;;;;;4.47;3.70;;;8.10;99.90;;;;;;5059561;28;20926;-80
2022/11/27 10:54:49;;;;;;;5.53;3.80;;;8.20;99.90;;;;;;5041547;28;20178;-79
2022/11/27 10:57:47;;;;;;;7.07;3.53;;;8.20;99.90;;;;;;5041605;28;20432;-79
2022/11/27 11:00:23;;;;;;;9.33;5.30;;;8.20;99.90;;;;;;5060072;28;20452;-79
2022/11/27 11:03:02;;;;;;;7.20;4.37;;;8.20;99.90;;;;;;5059428;28;20425;-80
2022/11/27 11:05:29;;;;;;;5.47;4.27;;;8.30;99.90;;;;;;5040620;28;20413;-78
2022/11/27 11:07:56;;;;;;;6.10;3.73;;;8.20;99.90;;;;;;5059745;28;20496;-79
2022/11/27 11:10:35;;;;;;;5.27;3.40;;;8.20;99.90;;;;;;5059433;28;20404;-79
2022/11/27 11:13:12;;;;;;;4.80;4.40;;;8.30;99.90;;;;;;5060992;28;20831;-79
2022/11/27 11:15:53;;;;;;;7.70;3.83;;;8.30;99.90;;;;;;5060154;28;20417;-79
2022/11/27 11:18:27;;;;;;;7.17;4.73;;;8.40;99.90;;;;;;5042154;28;20443;-79
2022/11/27 11:21:00;;;;;;;8.73;4.70;;;8.50;99.90;;;;;;5042310;28;20516;-80
2022/11/27 11:23:37;;;;;;;8.03;4.03;;;8.50;99.90;;;;;;5059596;28;20451;-79
2022/11/27 11:26:22;;;;;;;7.83;4.73;;;8.50;99.90;;;;;;5041112;28;20497;-80
2022/11/27 11:28:51;;;;;;;8.63;4.67;;;8.50;99.90;;;;;;5042467;28;20413;-79
2022/11/27 11:31:20;;;;;;;11.53;5.20;;;8.50;99.90;;;;;;5042289;28;20425;-79
2022/11/27 11:33:50;;;;;;;8.30;5.00;;;8.60;99.90;;;;;;5042114;28;20440;-79
2022/11/27 11:36:16;;;;;;;9.27;5.00;;;8.50;99.90;;;;;;5059936;28;20398;-80
2022/11/27 11:38:45;;;;;;;7.77;4.37;;;8.50;99.90;;;;;;5042468;28;20884;-79
2022/11/27 11:41:12;;;;;;;5.87;4.33;;;8.60;99.90;;;;;;5059989;28;20177;-79
2022/11/27 11:43:57;;;;;;;8.10;3.70;;;8.50;99.90;;;;;;5060407;28;20421;-79
2022/11/27 11:46:27;;;;;;;10.53;4.87;;;8.50;99.90;;;;;;5059851;28;20425;-79
2022/11/27 11:48:56;;;;;;;7.10;4.17;;;8.50;99.90;;;;;;5060345;28;20404;-79
2022/11/27 11:52:00;;;;;;;7.20;4.97;;;8.50;99.90;;;;;;5040773;28;20405;-79
2022/11/27 11:54:31;;;;;;;6.60;4.43;;;8.50;99.90;;;;;;5058496;28;20762;-79
2022/11/27 11:57:01;;;;;;;13.23;4.00;;;8.50;99.90;;;;;;5041473;28;20454;-79
2022/11/27 11:59:36;;;;;;;6.80;3.93;;;8.50;99.90;;;;;;5059067;28;20489;-80
2022/11/27 12:02:34;;;;;;;6.10;4.40;;;8.70;99.90;;;;;;5039986;28;20845;-79
2022/11/27 12:05:21;;;;;;;7.47;4.27;;;8.70;99.90;;;;;;5058031;28;20401;-80
2022/11/27 12:08:24;;;;;;;8.30;4.03;;;8.80;99.90;;;;;;5039846;28;20417;-77
2022/11/27 12:11:10;;;;;;;7.77;3.80;;;8.90;99.90;;;;;;5059042;28;20401;-78
2022/11/27 12:13:48;;;;;;;4.50;3.40;;;9.00;99.90;;;;;;5039766;28;20421;-78
2022/11/27 12:16:36;;;;;;;8.13;4.37;;;9.00;99.90;;;;;;5057280;28;21159;-79
2022/11/27 12:19:36;;;;;;;8.10;4.97;;;9.10;99.90;;;;;;5040000;28;20976;-79
2022/11/27 12:22:13;;;;;;;5.90;3.77;;;9.00;99.90;;;;;;5039380;28;20431;-78
2022/11/27 12:25:23;;;;;;;4.63;3.40;;;9.10;99.90;;;;;;5057154;28;20460;-79
2022/11/27 12:27:58;;;;;;;11.10;3.50;;;9.10;99.90;;;;;;5018012;28;20490;-79
2022/11/27 12:30:28;;;;;;;4.90;3.77;;;9.10;99.90;;;;;;5057840;28;20432;-80
2022/11/27 12:33:06;;;;;;;9.00;3.70;;;9.10;99.90;;;;;;5039406;28;20448;-78
2022/11/27 12:35:43;;;;;;;3.73;2.80;;;9.20;99.90;;;;;;5036146;28;20431;-76
2022/11/27 12:38:24;;;;;;;9.27;4.30;;;9.10;99.90;;;;;;5055758;28;20397;-82
2022/11/27 12:41:21;;;;;;;6.23;3.67;;;9.10;99.90;;;;;;5037443;28;20453;-81
2022/11/27 12:43:51;;;;;;;6.10;2.93;;;9.20;99.90;;;;;;5038152;28;20942;-80
2022/11/27 12:46:26;;;;;;;5.50;2.93;;;9.20;99.90;;;;;;5039730;28;20409;-77
2022/11/27 12:49:01;;;;;;;5.83;2.70;;;9.20;99.90;;;;;;5042379;28;20416;-77
2022/11/27 12:51:38;;;;;;;6.93;3.43;;;9.20;99.90;;;;;;5040918;28;20811;-77
2022/11/27 12:54:18;;;;;;;6.87;3.00;;;9.20;99.90;;;;;;5039982;28;20950;-77
2022/11/27 12:56:51;;;;;;;3.70;2.60;;;9.20;99.90;;;;;;5040938;28;20413;-77
2022/11/27 12:59:24;;;;;;;4.03;3.43;;;9.10;99.90;;;;;;5058070;28;20444;-77
2022/11/27 13:02:08;;;;;;;4.30;3.30;;;9.00;99.90;;;;;;5036210;28;20784;-77
2022/11/27 13:04:50;;;;;;;5.87;3.60;;;9.00;99.90;;;;;;5053921;28;20397;-79
2022/11/27 13:07:38;;;;;;;3.77;3.20;;;9.00;99.90;;;;;;5038290;28;20826;-77
2022/11/27 13:10:21;;;;;;;3.67;2.87;;;9.00;99.90;;;;;;5036959;28;20993;-79
2022/11/27 13:13:16;;;;;;;4.60;3.33;;;9.00;99.90;;;;;;5037627;28;20448;-78
2022/11/27 13:16:02;;;;;;;3.20;2.57;;;9.00;99.90;;;;;;5057817;28;20397;-76